sensor_id;sensor_type;location;lat;lon;timestamp;P1;durP1;ratioP1;P2;durP2;ratioP2
58472;SDS011;44775;51.564;5.460;2023-11-19T00:00:48;12.75;;;10.27;;
58472;SDS011;44775;51.564;5.460;2023-11-19T00:03:13;10.98;;;9.70;;
58472;SDS011;44775;51.564;5.460;2023-11-19T00:05:39;14.25;;;10.48;;
58472;SDS011;44775;51.564;5.460;2023-11-19T00:08:04;12.95;;;9.63;;
58472;SDS011;44775;51.564;5.460;2023-11-19T00:10:31;12.77;;;10.30;;
58472;SDS011;44775;51.564;5.460;2023-11-19T00:12:56;14.77;;;9.88;;
58472;SDS011;44775;51.564;5.460;2023-11-19T00:15:22;13.75;;;10.05;;
58472;SDS011;44775;51.564;5.460;2023-11-19T00:17:49;12.93;;;9.60;;
58472;SDS011;44775;51.564;5.460;2023-11-19T00:20:15;13.18;;;10.32;;
58472;SDS011;44775;51.564;5.460;2023-11-19T00:22:41;13.90;;;9.75;;
58472;SDS011;44775;51.564;5.460;2023-11-19T00:25:07;14.70;;;8.73;;
58472;SDS011;44775;51.564;5.460;2023-11-19T00:27:33;17.88;;;9.18;;
58472;SDS011;44775;51.564;5.460;2023-11-19T00:29:59;16.13;;;8.88;;
58472;SDS011;44775;51.564;5.460;2023-11-19T00:32:24;13.15;;;8.50;;
58472;SDS011;44775;51.564;5.460;2023-11-19T00:34:50;9.52;;;7.60;;
58472;SDS011;44775;51.564;5.460;2023-11-19T00:37:16;15.98;;;8.43;;
58472;SDS011;44775;51.564;5.460;2023-11-19T00:39:41;11.90;;;7.07;;
58472;SDS011;44775;51.564;5.460;2023-11-19T00:42:08;11.23;;;7.75;;
58472;SDS011;44775;51.564;5.460;2023-11-19T00:44:35;14.50;;;7.50;;
58472;SDS011;44775;51.564;5.460;2023-11-19T00:47:00;11.98;;;7.28;;
58472;SDS011;44775;51.564;5.460;2023-11-19T00:49:25;14.18;;;6.63;;
58472;SDS011;44775;51.564;5.460;2023-11-19T00:51:51;12.55;;;6.85;;
58472;SDS011;44775;51.564;5.460;2023-11-19T00:54:16;12.48;;;6.43;;
58472;SDS011;44775;51.564;5.460;2023-11-19T00:56:41;11.77;;;5.32;;
58472;SDS011;44775;51.564;5.460;2023-11-19T00:59:07;13.55;;;6.00;;
58472;SDS011;44775;51.564;5.460;2023-11-19T01:01:32;14.45;;;5.25;;
58472;SDS011;44775;51.564;5.460;2023-11-19T01:03:58;13.55;;;5.32;;
58472;SDS011;44775;51.564;5.460;2023-11-19T01:06:27;13.55;;;5.43;;
58472;SDS011;44775;51.564;5.460;2023-11-19T01:08:55;11.85;;;4.95;;
58472;SDS011;44775;51.564;5.460;2023-11-19T01:11:22;14.18;;;5.25;;
58472;SDS011;44775;51.564;5.460;2023-11-19T01:13:48;11.07;;;5.15;;
58472;SDS011;44775;51.564;5.460;2023-11-19T01:16:13;10.38;;;4.85;;
58472;SDS011;44775;51.564;5.460;2023-11-19T01:18:38;10.88;;;4.32;;
58472;SDS011;44775;51.564;5.460;2023-11-19T01:21:04;8.05;;;3.83;;
58472;SDS011;44775;51.564;5.460;2023-11-19T01:23:30;14.27;;;5.53;;
58472;SDS011;44775;51.564;5.460;2023-11-19T01:25:55;10.80;;;4.70;;
58472;SDS011;44775;51.564;5.460;2023-11-19T01:28:20;13.15;;;4.95;;
58472;SDS011;44775;51.564;5.460;2023-11-19T01:30:46;14.57;;;4.75;;
58472;SDS011;44775;51.564;5.460;2023-11-19T01:33:11;12.57;;;5.10;;
58472;SDS011;44775;51.564;5.460;2023-11-19T01:35:36;15.50;;;5.20;;
58472;SDS011;44775;51.564;5.460;2023-11-19T01:38:01;14.95;;;5.18;;
58472;SDS011;44775;51.564;5.460;2023-11-19T01:40:27;12.10;;;5.13;;
58472;SDS011;44775;51.564;5.460;2023-11-19T01:42:52;13.30;;;4.80;;
58472;SDS011;44775;51.564;5.460;2023-11-19T01:45:27;13.35;;;4.97;;
58472;SDS011;44775;51.564;5.460;2023-11-19T01:47:54;18.17;;;5.07;;
58472;SDS011;44775;51.564;5.460;2023-11-19T01:50:21;16.63;;;5.38;;
58472;SDS011;44775;51.564;5.460;2023-11-19T01:52:47;13.38;;;5.00;;
58472;SDS011;44775;51.564;5.460;2023-11-19T01:55:13;14.65;;;4.88;;
58472;SDS011;44775;51.564;5.460;2023-11-19T01:57:38;22.85;;;4.95;;
58472;SDS011;44775;51.564;5.460;2023-11-19T02:00:06;18.35;;;4.88;;
58472;SDS011;44775;51.564;5.460;2023-11-19T02:02:36;16.45;;;5.35;;
58472;SDS011;44775;51.564;5.460;2023-11-19T02:05:01;17.42;;;4.38;;
58472;SDS011;44775;51.564;5.460;2023-11-19T02:07:27;20.27;;;4.85;;
58472;SDS011;44775;51.564;5.460;2023-11-19T02:09:53;13.40;;;4.18;;
58472;SDS011;44775;51.564;5.460;2023-11-19T02:12:18;19.13;;;4.65;;
58472;SDS011;44775;51.564;5.460;2023-11-19T02:14:45;17.92;;;4.85;;
58472;SDS011;44775;51.564;5.460;2023-11-19T02:19:52;15.68;;;5.03;;
58472;SDS011;44775;51.564;5.460;2023-11-19T02:22:17;16.73;;;4.50;;
58472;SDS011;44775;51.564;5.460;2023-11-19T02:24:42;19.77;;;5.00;;
58472;SDS011;44775;51.564;5.460;2023-11-19T02:27:10;19.73;;;5.07;;
58472;SDS011;44775;51.564;5.460;2023-11-19T02:29:44;18.70;;;5.35;;
58472;SDS011;44775;51.564;5.460;2023-11-19T02:32:10;24.63;;;5.78;;
58472;SDS011;44775;51.564;5.460;2023-11-19T02:34:38;19.77;;;5.43;;
58472;SDS011;44775;51.564;5.460;2023-11-19T02:37:03;16.98;;;4.93;;
58472;SDS011;44775;51.564;5.460;2023-11-19T02:39:30;18.55;;;5.50;;
58472;SDS011;44775;51.564;5.460;2023-11-19T02:41:56;14.35;;;5.28;;
58472;SDS011;44775;51.564;5.460;2023-11-19T02:44:21;22.58;;;5.50;;
58472;SDS011;44775;51.564;5.460;2023-11-19T02:46:47;18.25;;;5.43;;
58472;SDS011;44775;51.564;5.460;2023-11-19T02:49:13;20.73;;;5.65;;
58472;SDS011;44775;51.564;5.460;2023-11-19T02:51:39;22.58;;;5.15;;
58472;SDS011;44775;51.564;5.460;2023-11-19T02:54:04;17.55;;;4.53;;
58472;SDS011;44775;51.564;5.460;2023-11-19T02:56:30;20.98;;;5.18;;
58472;SDS011;44775;51.564;5.460;2023-11-19T02:58:59;20.13;;;5.32;;
58472;SDS011;44775;51.564;5.460;2023-11-19T03:01:25;24.27;;;5.22;;
58472;SDS011;44775;51.564;5.460;2023-11-19T03:04:00;23.98;;;5.10;;
58472;SDS011;44775;51.564;5.460;2023-11-19T03:06:27;24.23;;;5.15;;
58472;SDS011;44775;51.564;5.460;2023-11-19T03:08:53;23.27;;;4.53;;
58472;SDS011;44775;51.564;5.460;2023-11-19T03:11:19;22.85;;;4.55;;
58472;SDS011;44775;51.564;5.460;2023-11-19T03:13:45;26.88;;;5.65;;
58472;SDS011;44775;51.564;5.460;2023-11-19T03:16:11;28.10;;;6.28;;
58472;SDS011;44775;51.564;5.460;2023-11-19T03:18:37;27.55;;;5.25;;
58472;SDS011;44775;51.564;5.460;2023-11-19T03:21:03;29.45;;;5.18;;
58472;SDS011;44775;51.564;5.460;2023-11-19T03:23:29;24.67;;;5.20;;
58472;SDS011;44775;51.564;5.460;2023-11-19T03:25:54;22.88;;;4.43;;
58472;SDS011;44775;51.564;5.460;2023-11-19T03:28:20;25.15;;;4.97;;
58472;SDS011;44775;51.564;5.460;2023-11-19T03:30:45;22.60;;;4.30;;
58472;SDS011;44775;51.564;5.460;2023-11-19T03:33:10;28.08;;;4.50;;
58472;SDS011;44775;51.564;5.460;2023-11-19T03:35:36;23.27;;;4.85;;
58472;SDS011;44775;51.564;5.460;2023-11-19T03:38:01;27.40;;;5.35;;
58472;SDS011;44775;51.564;5.460;2023-11-19T03:40:27;21.20;;;3.97;;
58472;SDS011;44775;51.564;5.460;2023-11-19T03:42:53;29.95;;;5.05;;
58472;SDS011;44775;51.564;5.460;2023-11-19T03:45:18;30.10;;;5.45;;
58472;SDS011;44775;51.564;5.460;2023-11-19T03:47:43;31.48;;;5.22;;
58472;SDS011;44775;51.564;5.460;2023-11-19T03:50:09;29.98;;;4.80;;
58472;SDS011;44775;51.564;5.460;2023-11-19T03:52:34;30.15;;;5.18;;
58472;SDS011;44775;51.564;5.460;2023-11-19T03:55:00;31.77;;;4.80;;
58472;SDS011;44775;51.564;5.460;2023-11-19T03:57:27;30.15;;;5.30;;
58472;SDS011;44775;51.564;5.460;2023-11-19T03:59:52;34.83;;;5.40;;
58472;SDS011;44775;51.564;5.460;2023-11-19T04:02:18;32.78;;;5.35;;
58472;SDS011;44775;51.564;5.460;2023-11-19T04:04:43;31.92;;;4.85;;
58472;SDS011;44775;51.564;5.460;2023-11-19T04:07:09;31.02;;;5.05;;
58472;SDS011;44775;51.564;5.460;2023-11-19T04:09:34;35.40;;;5.10;;
58472;SDS011;44775;51.564;5.460;2023-11-19T04:12:00;35.58;;;5.72;;
58472;SDS011;44775;51.564;5.460;2023-11-19T04:14:25;34.90;;;5.15;;
58472;SDS011;44775;51.564;5.460;2023-11-19T04:16:51;33.97;;;5.47;;
58472;SDS011;44775;51.564;5.460;2023-11-19T04:19:17;38.33;;;6.55;;
58472;SDS011;44775;51.564;5.460;2023-11-19T04:21:43;26.67;;;4.82;;
58472;SDS011;44775;51.564;5.460;2023-11-19T04:24:09;25.38;;;4.50;;
58472;SDS011;44775;51.564;5.460;2023-11-19T04:26:42;34.67;;;5.43;;
58472;SDS011;44775;51.564;5.460;2023-11-19T04:29:13;33.17;;;5.50;;
58472;SDS011;44775;51.564;5.460;2023-11-19T04:31:40;33.88;;;5.03;;
58472;SDS011;44775;51.564;5.460;2023-11-19T04:34:06;28.63;;;4.68;;
58472;SDS011;44775;51.564;5.460;2023-11-19T04:36:32;38.28;;;6.60;;
58472;SDS011;44775;51.564;5.460;2023-11-19T04:38:58;23.08;;;4.10;;
58472;SDS011;44775;51.564;5.460;2023-11-19T04:41:24;29.48;;;4.90;;
58472;SDS011;44775;51.564;5.460;2023-11-19T04:43:50;25.40;;;5.63;;
58472;SDS011;44775;51.564;5.460;2023-11-19T04:46:15;28.50;;;5.53;;
58472;SDS011;44775;51.564;5.460;2023-11-19T04:48:40;34.95;;;5.97;;
58472;SDS011;44775;51.564;5.460;2023-11-19T04:51:07;33.67;;;6.07;;
58472;SDS011;44775;51.564;5.460;2023-11-19T04:53:34;34.83;;;6.53;;
58472;SDS011;44775;51.564;5.460;2023-11-19T04:55:59;37.72;;;6.22;;
58472;SDS011;44775;51.564;5.460;2023-11-19T04:58:24;38.63;;;6.82;;
58472;SDS011;44775;51.564;5.460;2023-11-19T05:00:50;37.63;;;5.82;;
58472;SDS011;44775;51.564;5.460;2023-11-19T05:03:15;32.55;;;5.35;;
58472;SDS011;44775;51.564;5.460;2023-11-19T05:05:40;35.40;;;6.13;;
58472;SDS011;44775;51.564;5.460;2023-11-19T05:08:06;32.13;;;5.45;;
58472;SDS011;44775;51.564;5.460;2023-11-19T05:10:31;30.27;;;5.20;;
58472;SDS011;44775;51.564;5.460;2023-11-19T05:12:56;32.78;;;6.15;;
58472;SDS011;44775;51.564;5.460;2023-11-19T05:15:22;26.80;;;5.63;;
58472;SDS011;44775;51.564;5.460;2023-11-19T05:17:47;25.70;;;4.82;;
58472;SDS011;44775;51.564;5.460;2023-11-19T05:20:13;30.35;;;5.15;;
58472;SDS011;44775;51.564;5.460;2023-11-19T05:22:41;32.15;;;5.28;;
58472;SDS011;44775;51.564;5.460;2023-11-19T05:27:33;30.30;;;5.43;;
58472;SDS011;44775;51.564;5.460;2023-11-19T05:29:59;22.20;;;4.05;;
58472;SDS011;44775;51.564;5.460;2023-11-19T05:32:25;31.60;;;5.18;;
58472;SDS011;44775;51.564;5.460;2023-11-19T05:34:50;28.63;;;5.45;;
58472;SDS011;44775;51.564;5.460;2023-11-19T05:37:16;32.65;;;5.18;;
58472;SDS011;44775;51.564;5.460;2023-11-19T05:39:41;35.63;;;5.72;;
58472;SDS011;44775;51.564;5.460;2023-11-19T05:42:07;43.15;;;6.32;;
58472;SDS011;44775;51.564;5.460;2023-11-19T05:44:32;35.47;;;5.85;;
58472;SDS011;44775;51.564;5.460;2023-11-19T05:46:57;31.52;;;5.35;;
58472;SDS011;44775;51.564;5.460;2023-11-19T05:49:22;29.35;;;5.38;;
58472;SDS011;44775;51.564;5.460;2023-11-19T05:51:48;28.52;;;5.05;;
58472;SDS011;44775;51.564;5.460;2023-11-19T05:54:13;36.75;;;6.18;;
58472;SDS011;44775;51.564;5.460;2023-11-19T05:56:38;33.15;;;6.03;;
58472;SDS011;44775;51.564;5.460;2023-11-19T05:59:04;26.30;;;4.85;;
58472;SDS011;44775;51.564;5.460;2023-11-19T06:01:35;32.42;;;5.13;;
58472;SDS011;44775;51.564;5.460;2023-11-19T06:04:01;33.00;;;5.38;;
58472;SDS011;44775;51.564;5.460;2023-11-19T06:06:26;31.85;;;5.93;;
58472;SDS011;44775;51.564;5.460;2023-11-19T06:08:53;40.35;;;5.40;;
58472;SDS011;44775;51.564;5.460;2023-11-19T06:11:18;37.25;;;5.85;;
58472;SDS011;44775;51.564;5.460;2023-11-19T06:13:45;31.25;;;5.50;;
58472;SDS011;44775;51.564;5.460;2023-11-19T06:16:11;32.03;;;5.60;;
58472;SDS011;44775;51.564;5.460;2023-11-19T06:18:37;35.03;;;5.30;;
58472;SDS011;44775;51.564;5.460;2023-11-19T06:21:02;25.27;;;5.38;;
58472;SDS011;44775;51.564;5.460;2023-11-19T06:23:28;40.63;;;5.00;;
58472;SDS011;44775;51.564;5.460;2023-11-19T06:25:53;24.42;;;4.38;;
58472;SDS011;44775;51.564;5.460;2023-11-19T06:28:18;36.88;;;6.00;;
58472;SDS011;44775;51.564;5.460;2023-11-19T06:30:44;40.55;;;6.13;;
58472;SDS011;44775;51.564;5.460;2023-11-19T06:33:12;39.33;;;5.80;;
58472;SDS011;44775;51.564;5.460;2023-11-19T06:35:38;33.13;;;4.28;;
58472;SDS011;44775;51.564;5.460;2023-11-19T06:38:03;33.78;;;5.30;;
58472;SDS011;44775;51.564;5.460;2023-11-19T06:40:34;36.08;;;5.22;;
58472;SDS011;44775;51.564;5.460;2023-11-19T06:43:00;31.45;;;5.32;;
58472;SDS011;44775;51.564;5.460;2023-11-19T06:45:26;31.85;;;5.18;;
58472;SDS011;44775;51.564;5.460;2023-11-19T06:47:51;35.00;;;5.07;;
58472;SDS011;44775;51.564;5.460;2023-11-19T06:50:16;37.22;;;6.15;;
58472;SDS011;44775;51.564;5.460;2023-11-19T06:52:44;46.25;;;5.93;;
58472;SDS011;44775;51.564;5.460;2023-11-19T06:55:10;31.63;;;5.50;;
58472;SDS011;44775;51.564;5.460;2023-11-19T06:57:35;35.97;;;5.65;;
58472;SDS011;44775;51.564;5.460;2023-11-19T07:00:00;38.65;;;6.18;;
58472;SDS011;44775;51.564;5.460;2023-11-19T07:02:26;25.92;;;4.22;;
58472;SDS011;44775;51.564;5.460;2023-11-19T07:04:51;42.55;;;5.72;;
58472;SDS011;44775;51.564;5.460;2023-11-19T07:07:17;39.03;;;6.15;;
58472;SDS011;44775;51.564;5.460;2023-11-19T07:09:42;31.52;;;5.07;;
58472;SDS011;44775;51.564;5.460;2023-11-19T07:12:07;32.20;;;5.75;;
58472;SDS011;44775;51.564;5.460;2023-11-19T07:14:33;33.60;;;4.75;;
58472;SDS011;44775;51.564;5.460;2023-11-19T07:16:59;38.53;;;5.30;;
58472;SDS011;44775;51.564;5.460;2023-11-19T07:19:25;27.65;;;5.05;;
58472;SDS011;44775;51.564;5.460;2023-11-19T07:21:50;37.95;;;5.20;;
58472;SDS011;44775;51.564;5.460;2023-11-19T07:24:16;36.85;;;5.20;;
58472;SDS011;44775;51.564;5.460;2023-11-19T07:26:45;33.78;;;5.45;;
58472;SDS011;44775;51.564;5.460;2023-11-19T07:29:12;31.35;;;5.13;;
58472;SDS011;44775;51.564;5.460;2023-11-19T07:31:38;35.58;;;5.47;;
58472;SDS011;44775;51.564;5.460;2023-11-19T07:34:03;40.15;;;5.60;;
58472;SDS011;44775;51.564;5.460;2023-11-19T07:36:30;40.40;;;6.25;;
58472;SDS011;44775;51.564;5.460;2023-11-19T07:38:56;40.67;;;6.15;;
58472;SDS011;44775;51.564;5.460;2023-11-19T07:41:22;34.42;;;5.28;;
58472;SDS011;44775;51.564;5.460;2023-11-19T07:43:50;39.03;;;6.15;;
58472;SDS011;44775;51.564;5.460;2023-11-19T07:46:16;34.60;;;5.35;;
58472;SDS011;44775;51.564;5.460;2023-11-19T07:48:44;30.52;;;5.43;;
58472;SDS011;44775;51.564;5.460;2023-11-19T07:51:11;31.75;;;5.55;;
58472;SDS011;44775;51.564;5.460;2023-11-19T07:53:38;36.28;;;5.15;;
58472;SDS011;44775;51.564;5.460;2023-11-19T07:56:03;35.65;;;5.13;;
58472;SDS011;44775;51.564;5.460;2023-11-19T07:58:29;40.58;;;6.68;;
58472;SDS011;44775;51.564;5.460;2023-11-19T08:00:54;35.28;;;5.22;;
58472;SDS011;44775;51.564;5.460;2023-11-19T08:03:20;33.38;;;4.70;;
58472;SDS011;44775;51.564;5.460;2023-11-19T08:05:46;32.72;;;5.07;;
58472;SDS011;44775;51.564;5.460;2023-11-19T08:08:12;31.50;;;5.20;;
58472;SDS011;44775;51.564;5.460;2023-11-19T08:10:37;41.00;;;4.80;;
58472;SDS011;44775;51.564;5.460;2023-11-19T08:13:03;37.10;;;6.32;;
58472;SDS011;44775;51.564;5.460;2023-11-19T08:15:29;31.02;;;5.72;;
58472;SDS011;44775;51.564;5.460;2023-11-19T08:17:54;38.92;;;5.88;;
58472;SDS011;44775;51.564;5.460;2023-11-19T08:20:19;38.30;;;5.25;;
58472;SDS011;44775;51.564;5.460;2023-11-19T08:22:45;36.05;;;5.53;;
58472;SDS011;44775;51.564;5.460;2023-11-19T08:25:11;31.98;;;5.55;;
58472;SDS011;44775;51.564;5.460;2023-11-19T08:27:36;36.33;;;5.50;;
58472;SDS011;44775;51.564;5.460;2023-11-19T08:30:02;35.88;;;5.63;;
58472;SDS011;44775;51.564;5.460;2023-11-19T08:32:27;33.28;;;5.18;;
58472;SDS011;44775;51.564;5.460;2023-11-19T08:34:53;33.13;;;6.03;;
58472;SDS011;44775;51.564;5.460;2023-11-19T08:37:19;35.78;;;5.85;;
58472;SDS011;44775;51.564;5.460;2023-11-19T08:39:49;35.60;;;5.43;;
58472;SDS011;44775;51.564;5.460;2023-11-19T08:42:15;41.00;;;6.38;;
58472;SDS011;44775;51.564;5.460;2023-11-19T08:44:41;35.65;;;5.53;;
58472;SDS011;44775;51.564;5.460;2023-11-19T08:47:08;43.10;;;6.03;;
58472;SDS011;44775;51.564;5.460;2023-11-19T08:49:34;33.15;;;5.35;;
58472;SDS011;44775;51.564;5.460;2023-11-19T08:52:00;30.23;;;5.60;;
58472;SDS011;44775;51.564;5.460;2023-11-19T08:54:25;30.83;;;5.45;;
58472;SDS011;44775;51.564;5.460;2023-11-19T08:56:51;30.85;;;4.90;;
58472;SDS011;44775;51.564;5.460;2023-11-19T08:59:16;36.90;;;5.35;;
58472;SDS011;44775;51.564;5.460;2023-11-19T09:01:41;32.83;;;4.70;;
58472;SDS011;44775;51.564;5.460;2023-11-19T09:04:06;32.97;;;5.28;;
58472;SDS011;44775;51.564;5.460;2023-11-19T09:06:33;37.75;;;5.40;;
58472;SDS011;44775;51.564;5.460;2023-11-19T09:08:58;37.17;;;5.57;;
58472;SDS011;44775;51.564;5.460;2023-11-19T09:11:27;32.95;;;5.13;;
58472;SDS011;44775;51.564;5.460;2023-11-19T09:13:53;42.00;;;5.93;;
58472;SDS011;44775;51.564;5.460;2023-11-19T09:16:18;31.83;;;5.70;;
58472;SDS011;44775;51.564;5.460;2023-11-19T09:18:44;34.47;;;4.82;;
58472;SDS011;44775;51.564;5.460;2023-11-19T09:21:12;31.17;;;5.30;;
58472;SDS011;44775;51.564;5.460;2023-11-19T09:23:37;35.33;;;5.53;;
58472;SDS011;44775;51.564;5.460;2023-11-19T09:26:13;37.17;;;5.50;;
58472;SDS011;44775;51.564;5.460;2023-11-19T09:28:38;34.92;;;5.68;;
58472;SDS011;44775;51.564;5.460;2023-11-19T09:31:12;30.13;;;5.05;;
58472;SDS011;44775;51.564;5.460;2023-11-19T09:33:38;39.15;;;6.32;;
58472;SDS011;44775;51.564;5.460;2023-11-19T09:36:04;30.67;;;5.03;;
58472;SDS011;44775;51.564;5.460;2023-11-19T09:38:29;34.10;;;4.97;;
58472;SDS011;44775;51.564;5.460;2023-11-19T09:40:54;38.20;;;5.82;;
58472;SDS011;44775;51.564;5.460;2023-11-19T09:43:20;32.03;;;5.18;;
58472;SDS011;44775;51.564;5.460;2023-11-19T09:45:49;38.20;;;5.28;;
58472;SDS011;44775;51.564;5.460;2023-11-19T09:48:18;36.88;;;6.13;;
58472;SDS011;44775;51.564;5.460;2023-11-19T09:50:45;34.67;;;5.25;;
58472;SDS011;44775;51.564;5.460;2023-11-19T09:53:12;31.42;;;5.53;;
58472;SDS011;44775;51.564;5.460;2023-11-19T09:55:37;27.08;;;4.70;;
58472;SDS011;44775;51.564;5.460;2023-11-19T09:58:03;33.00;;;5.22;;
58472;SDS011;44775;51.564;5.460;2023-11-19T10:00:28;32.75;;;5.18;;
58472;SDS011;44775;51.564;5.460;2023-11-19T10:02:55;31.15;;;5.10;;
58472;SDS011;44775;51.564;5.460;2023-11-19T10:05:22;29.52;;;5.45;;
58472;SDS011;44775;51.564;5.460;2023-11-19T10:07:49;26.75;;;5.13;;
58472;SDS011;44775;51.564;5.460;2023-11-19T10:10:14;35.92;;;5.95;;
58472;SDS011;44775;51.564;5.460;2023-11-19T10:12:43;35.85;;;5.25;;
58472;SDS011;44775;51.564;5.460;2023-11-19T10:15:10;34.90;;;4.93;;
58472;SDS011;44775;51.564;5.460;2023-11-19T10:17:49;37.65;;;6.13;;
58472;SDS011;44775;51.564;5.460;2023-11-19T10:20:15;35.00;;;5.55;;
58472;SDS011;44775;51.564;5.460;2023-11-19T10:22:40;30.40;;;5.50;;
58472;SDS011;44775;51.564;5.460;2023-11-19T10:25:18;34.72;;;5.32;;
58472;SDS011;44775;51.564;5.460;2023-11-19T10:27:48;31.70;;;5.20;;
58472;SDS011;44775;51.564;5.460;2023-11-19T10:30:13;31.38;;;5.20;;
58472;SDS011;44775;51.564;5.460;2023-11-19T10:32:42;38.88;;;6.00;;
58472;SDS011;44775;51.564;5.460;2023-11-19T10:35:08;32.05;;;5.97;;
58472;SDS011;44775;51.564;5.460;2023-11-19T10:37:33;27.65;;;4.70;;
58472;SDS011;44775;51.564;5.460;2023-11-19T10:40:00;25.08;;;4.40;;
58472;SDS011;44775;51.564;5.460;2023-11-19T10:42:25;27.52;;;4.72;;
58472;SDS011;44775;51.564;5.460;2023-11-19T10:44:51;32.72;;;5.68;;
58472;SDS011;44775;51.564;5.460;2023-11-19T10:47:18;34.38;;;6.10;;
58472;SDS011;44775;51.564;5.460;2023-11-19T10:49:44;29.85;;;5.03;;
58472;SDS011;44775;51.564;5.460;2023-11-19T10:52:11;32.38;;;5.25;;
58472;SDS011;44775;51.564;5.460;2023-11-19T10:54:37;37.10;;;5.15;;
58472;SDS011;44775;51.564;5.460;2023-11-19T10:57:09;22.42;;;3.80;;
58472;SDS011;44775;51.564;5.460;2023-11-19T10:59:37;23.85;;;4.40;;
58472;SDS011;44775;51.564;5.460;2023-11-19T11:02:03;33.75;;;5.40;;
58472;SDS011;44775;51.564;5.460;2023-11-19T11:04:35;26.15;;;4.88;;
58472;SDS011;44775;51.564;5.460;2023-11-19T11:07:07;26.00;;;5.07;;
58472;SDS011;44775;51.564;5.460;2023-11-19T11:09:32;30.58;;;5.03;;
58472;SDS011;44775;51.564;5.460;2023-11-19T11:11:58;26.83;;;5.00;;
58472;SDS011;44775;51.564;5.460;2023-11-19T11:14:24;25.15;;;4.75;;
58472;SDS011;44775;51.564;5.460;2023-11-19T11:16:51;33.53;;;4.55;;
58472;SDS011;44775;51.564;5.460;2023-11-19T11:19:18;30.98;;;4.28;;
58472;SDS011;44775;51.564;5.460;2023-11-19T11:21:45;27.77;;;4.80;;
58472;SDS011;44775;51.564;5.460;2023-11-19T11:29:31;28.25;;;5.10;;
58472;SDS011;44775;51.564;5.460;2023-11-19T11:37:30;25.67;;;4.50;;
58472;SDS011;44775;51.564;5.460;2023-11-19T11:39:59;26.30;;;4.93;;
58472;SDS011;44775;51.564;5.460;2023-11-19T11:42:30;26.25;;;4.45;;
58472;SDS011;44775;51.564;5.460;2023-11-19T11:50:17;22.75;;;4.82;;
58472;SDS011;44775;51.564;5.460;2023-11-19T11:57:52;25.10;;;4.13;;
58472;SDS011;44775;51.564;5.460;2023-11-19T12:00:37;23.67;;;4.55;;
58472;SDS011;44775;51.564;5.460;2023-11-19T12:03:04;19.30;;;3.83;;
58472;SDS011;44775;51.564;5.460;2023-11-19T12:05:32;22.50;;;4.85;;
58472;SDS011;44775;51.564;5.460;2023-11-19T12:08:05;24.52;;;4.97;;
58472;SDS011;44775;51.564;5.460;2023-11-19T12:10:45;21.42;;;4.65;;
58472;SDS011;44775;51.564;5.460;2023-11-19T12:13:18;18.17;;;3.88;;
58472;SDS011;44775;51.564;5.460;2023-11-19T12:18:28;25.48;;;4.50;;
58472;SDS011;44775;51.564;5.460;2023-11-19T12:20:54;25.70;;;4.80;;
58472;SDS011;44775;51.564;5.460;2023-11-19T12:23:20;25.50;;;4.38;;
58472;SDS011;44775;51.564;5.460;2023-11-19T12:25:46;23.67;;;4.30;;
58472;SDS011;44775;51.564;5.460;2023-11-19T12:28:12;27.02;;;4.80;;
58472;SDS011;44775;51.564;5.460;2023-11-19T12:30:38;16.00;;;3.63;;
58472;SDS011;44775;51.564;5.460;2023-11-19T12:33:10;18.38;;;3.88;;
58472;SDS011;44775;51.564;5.460;2023-11-19T12:35:39;25.58;;;4.10;;
58472;SDS011;44775;51.564;5.460;2023-11-19T12:38:05;20.20;;;3.53;;
58472;SDS011;44775;51.564;5.460;2023-11-19T12:40:30;19.90;;;3.88;;
58472;SDS011;44775;51.564;5.460;2023-11-19T12:42:56;23.15;;;4.05;;
58472;SDS011;44775;51.564;5.460;2023-11-19T12:45:21;26.95;;;4.72;;
58472;SDS011;44775;51.564;5.460;2023-11-19T12:47:48;24.63;;;4.43;;
58472;SDS011;44775;51.564;5.460;2023-11-19T12:50:15;22.75;;;4.65;;
58472;SDS011;44775;51.564;5.460;2023-11-19T12:52:43;26.10;;;4.38;;
58472;SDS011;44775;51.564;5.460;2023-11-19T12:55:29;23.52;;;4.20;;
58472;SDS011;44775;51.564;5.460;2023-11-19T12:57:54;24.50;;;3.92;;
58472;SDS011;44775;51.564;5.460;2023-11-19T13:00:21;24.23;;;5.35;;
58472;SDS011;44775;51.564;5.460;2023-11-19T13:05:24;26.98;;;4.55;;
58472;SDS011;44775;51.564;5.460;2023-11-19T13:07:51;24.95;;;4.88;;
58472;SDS011;44775;51.564;5.460;2023-11-19T13:10:24;24.92;;;4.45;;
58472;SDS011;44775;51.564;5.460;2023-11-19T13:13:05;25.75;;;4.72;;
58472;SDS011;44775;51.564;5.460;2023-11-19T13:15:33;26.33;;;4.65;;
58472;SDS011;44775;51.564;5.460;2023-11-19T13:17:59;28.17;;;4.32;;
58472;SDS011;44775;51.564;5.460;2023-11-19T13:20:25;32.35;;;5.43;;
58472;SDS011;44775;51.564;5.460;2023-11-19T13:22:57;25.52;;;5.15;;
58472;SDS011;44775;51.564;5.460;2023-11-19T13:25:28;28.42;;;5.15;;
58472;SDS011;44775;51.564;5.460;2023-11-19T13:27:54;19.17;;;3.70;;
58472;SDS011;44775;51.564;5.460;2023-11-19T13:30:20;23.30;;;3.90;;
58472;SDS011;44775;51.564;5.460;2023-11-19T13:32:50;21.00;;;4.25;;
58472;SDS011;44775;51.564;5.460;2023-11-19T13:35:16;22.25;;;3.95;;
58472;SDS011;44775;51.564;5.460;2023-11-19T13:37:43;24.67;;;4.13;;
58472;SDS011;44775;51.564;5.460;2023-11-19T13:40:09;26.00;;;4.45;;
58472;SDS011;44775;51.564;5.460;2023-11-19T13:42:38;14.27;;;4.10;;
58472;SDS011;44775;51.564;5.460;2023-11-19T13:45:06;18.90;;;3.90;;
58472;SDS011;44775;51.564;5.460;2023-11-19T13:47:38;23.88;;;4.32;;
58472;SDS011;44775;51.564;5.460;2023-11-19T13:50:06;22.50;;;3.72;;
58472;SDS011;44775;51.564;5.460;2023-11-19T13:52:39;25.13;;;4.95;;
58472;SDS011;44775;51.564;5.460;2023-11-19T13:55:06;26.98;;;4.38;;
58472;SDS011;44775;51.564;5.460;2023-11-19T13:57:33;22.83;;;3.90;;
58472;SDS011;44775;51.564;5.460;2023-11-19T14:00:00;20.60;;;4.25;;
58472;SDS011;44775;51.564;5.460;2023-11-19T14:02:27;22.58;;;4.03;;
58472;SDS011;44775;51.564;5.460;2023-11-19T14:04:52;26.50;;;4.97;;
58472;SDS011;44775;51.564;5.460;2023-11-19T14:07:17;23.27;;;4.47;;
58472;SDS011;44775;51.564;5.460;2023-11-19T14:09:43;19.20;;;4.20;;
58472;SDS011;44775;51.564;5.460;2023-11-19T14:12:08;22.50;;;4.45;;
58472;SDS011;44775;51.564;5.460;2023-11-19T14:14:34;22.42;;;4.30;;
58472;SDS011;44775;51.564;5.460;2023-11-19T14:17:01;27.08;;;4.80;;
58472;SDS011;44775;51.564;5.460;2023-11-19T14:19:28;24.05;;;4.15;;
58472;SDS011;44775;51.564;5.460;2023-11-19T14:21:53;26.15;;;4.10;;
58472;SDS011;44775;51.564;5.460;2023-11-19T14:24:18;34.30;;;4.95;;
58472;SDS011;44775;51.564;5.460;2023-11-19T14:26:45;25.50;;;4.45;;
58472;SDS011;44775;51.564;5.460;2023-11-19T14:29:12;23.70;;;4.43;;
58472;SDS011;44775;51.564;5.460;2023-11-19T14:31:37;25.52;;;4.93;;
58472;SDS011;44775;51.564;5.460;2023-11-19T14:34:03;19.15;;;4.63;;
58472;SDS011;44775;51.564;5.460;2023-11-19T14:36:28;19.45;;;4.40;;
58472;SDS011;44775;51.564;5.460;2023-11-19T14:38:53;19.88;;;4.78;;
58472;SDS011;44775;51.564;5.460;2023-11-19T14:41:19;19.13;;;4.10;;
58472;SDS011;44775;51.564;5.460;2023-11-19T14:43:44;20.48;;;4.80;;
58472;SDS011;44775;51.564;5.460;2023-11-19T14:46:09;15.90;;;4.55;;
58472;SDS011;44775;51.564;5.460;2023-11-19T14:48:35;22.95;;;5.05;;
58472;SDS011;44775;51.564;5.460;2023-11-19T14:51:00;18.98;;;4.30;;
58472;SDS011;44775;51.564;5.460;2023-11-19T14:53:28;18.05;;;4.20;;
58472;SDS011;44775;51.564;5.460;2023-11-19T14:55:53;19.10;;;4.53;;
58472;SDS011;44775;51.564;5.460;2023-11-19T14:58:19;28.48;;;5.25;;
58472;SDS011;44775;51.564;5.460;2023-11-19T15:00:45;18.08;;;4.07;;